createdAt,value
2019-02-18T00:01:20.226Z,101494.41
2019-02-18T00:03:27.965Z,101493.12
2019-02-18T00:05:35.703Z,101501.41
2019-02-18T00:07:43.273Z,101498.83
2019-02-18T00:09:51.015Z,101498.34
2019-02-18T00:11:58.800Z,101497.09
2019-02-18T00:14:06.642Z,101496.27
2019-02-18T00:16:14.658Z,101496.64
2019-02-18T00:18:22.477Z,101498.09
2019-02-18T00:20:30.249Z,101495.19
2019-02-18T00:22:37.974Z,101496.59
2019-02-18T00:24:45.626Z,101494.81
2019-02-18T00:26:53.343Z,101491.79
2019-02-18T00:29:01.141Z,101495.80
2019-02-18T00:31:08.865Z,101487.02
2019-02-18T00:33:16.472Z,101495.73
2019-02-18T00:35:24.114Z,101491.47
2019-02-18T00:37:31.810Z,101498.88
2019-02-18T00:39:39.530Z,101492.40
2019-02-18T00:41:49.305Z,101496.19
2019-02-18T00:43:56.705Z,101493.56
2019-02-18T00:46:04.463Z,101493.41
2019-02-18T00:48:12.372Z,101493.20
2019-02-18T00:50:20.067Z,101486.19
2019-02-18T00:52:27.837Z,101480.02
2019-02-18T00:54:35.546Z,101478.73
2019-02-18T00:56:43.203Z,101482.64
2019-02-18T00:58:50.991Z,101487.05
2019-02-18T01:00:58.843Z,101488.36
2019-02-18T01:03:06.611Z,101481.86
2019-02-18T01:05:14.500Z,101488.73
2019-02-18T01:07:22.233Z,101482.72
2019-02-18T01:09:30.011Z,101480.94
2019-02-18T01:11:37.678Z,101472.62
2019-02-18T01:13:45.515Z,101473.50
2019-02-18T01:15:53.267Z,101472.78
2019-02-18T01:18:00.845Z,101464.92
2019-02-18T01:20:09.840Z,101464.94
2019-02-18T01:22:17.589Z,101463.61
2019-02-18T01:24:25.400Z,101469.62
2019-02-18T01:26:33.083Z,101464.84
2019-02-18T01:28:40.847Z,101468.39
2019-02-18T01:30:48.510Z,101460.64
2019-02-18T01:32:56.247Z,101465.09
2019-02-18T01:35:04.073Z,101453.70
2019-02-18T01:37:11.909Z,101454.08
2019-02-18T01:39:19.659Z,101453.23
2019-02-18T01:41:27.376Z,101461.09
2019-02-18T01:43:35.056Z,101456.30
2019-02-18T01:45:42.800Z,101452.77
2019-02-18T01:47:50.527Z,101446.31
2019-02-18T01:49:58.297Z,101447.16
2019-02-18T01:52:06.031Z,101445.83
2019-02-18T01:54:13.851Z,101445.79
2019-02-18T01:56:21.520Z,101436.72
2019-02-18T01:58:29.104Z,101442.33
2019-02-18T02:00:37.011Z,101443.22
2019-02-18T02:02:45.004Z,101446.69
2019-02-18T02:04:52.427Z,101444.48
2019-02-18T02:07:00.023Z,101439.22
2019-02-18T02:09:12.791Z,101444.92
2019-02-18T02:11:20.470Z,101444.00
2019-02-18T02:13:33.411Z,101445.38
2019-02-18T02:15:41.223Z,101449.31
2019-02-18T02:17:49.035Z,101443.23
2019-02-18T02:19:56.864Z,101440.32
2019-02-18T02:22:04.541Z,101436.31
2019-02-18T02:24:12.321Z,101432.30
2019-02-18T02:26:20.075Z,101428.39
2019-02-18T02:28:27.906Z,101428.87
2019-02-18T02:30:35.354Z,101423.61
2019-02-18T02:32:43.091Z,101429.77
2019-02-18T02:34:50.718Z,101427.94
2019-02-18T02:36:58.472Z,101421.45
2019-02-18T02:39:06.976Z,101423.98
2019-02-18T02:41:14.702Z,101423.52
2019-02-18T02:43:22.460Z,101420.02
2019-02-18T02:45:30.345Z,101417.91
2019-02-18T02:47:37.989Z,101422.70
2019-02-18T02:49:45.532Z,101423.98
2019-02-18T02:51:53.061Z,101423.23
2019-02-18T02:54:00.675Z,101427.53
2019-02-18T02:56:08.383Z,101419.16
2019-02-18T02:58:16.006Z,101427.83
2019-02-18T03:00:23.567Z,101427.45
2019-02-18T03:02:31.205Z,101432.23
2019-02-18T03:04:39.030Z,101424.83
2019-02-18T03:06:46.726Z,101431.78
2019-02-18T03:08:54.364Z,101435.31
2019-02-18T03:11:02.006Z,101429.69
2019-02-18T03:13:09.812Z,101424.83
2019-02-18T03:15:17.370Z,101430.93
2019-02-18T03:17:25.027Z,101430.77
2019-02-18T03:19:32.905Z,101426.81
2019-02-18T03:21:40.521Z,101422.89
2019-02-18T03:23:48.254Z,101420.59
2019-02-18T03:25:56.980Z,101424.14
2019-02-18T03:28:32.925Z,101426.73
2019-02-18T03:30:57.949Z,101421.13
2019-02-18T03:33:05.758Z,101429.38
2019-02-18T03:35:13.505Z,101428.11
2019-02-18T03:37:21.303Z,101427.23
2019-02-18T03:39:28.978Z,101434.66
2019-02-18T03:41:36.988Z,101428.97
2019-02-18T03:43:44.965Z,101431.61
2019-02-18T03:45:52.552Z,101428.58
2019-02-18T03:48:00.352Z,101431.22
2019-02-18T03:50:08.408Z,101424.20
2019-02-18T03:52:16.086Z,101426.81
2019-02-18T03:54:24.153Z,101430.28
2019-02-18T03:56:31.871Z,101423.30
2019-02-18T03:58:39.769Z,101426.30
2019-02-18T04:00:47.714Z,101423.67
2019-02-18T04:02:55.444Z,101420.22
2019-02-18T04:05:03.199Z,101423.73
2019-02-18T04:07:10.920Z,101420.22
2019-02-18T04:09:18.578Z,101419.25
2019-02-18T04:11:26.438Z,101425.44
2019-02-18T04:13:34.124Z,101418.89
2019-02-18T04:15:41.800Z,101424.56
2019-02-18T04:17:49.559Z,101408.34
2019-02-18T04:19:57.280Z,101412.73
2019-02-18T04:22:05.067Z,101417.09
2019-02-18T04:24:12.730Z,101412.27
2019-02-18T04:26:20.406Z,101418.41
2019-02-18T04:28:28.029Z,101420.13
2019-02-18T04:30:35.948Z,101425.73
2019-02-18T04:32:43.403Z,101426.66
2019-02-18T04:34:51.148Z,101425.05
2019-02-18T04:36:58.871Z,101426.38
2019-02-18T04:39:07.703Z,101423.81
2019-02-18T04:41:15.337Z,101417.66
2019-02-18T04:43:23.060Z,101413.20
2019-02-18T04:45:30.654Z,101415.82
2019-02-18T04:47:38.280Z,101417.50
2019-02-18T04:49:45.999Z,101414.50
2019-02-18T04:51:53.626Z,101413.64
2019-02-18T04:54:01.451Z,101410.03
2019-02-18T04:56:09.289Z,101410.95
2019-02-18T04:58:17.065Z,101414.41
2019-02-18T05:00:24.799Z,101413.78
2019-02-18T05:02:32.371Z,101409.09
2019-02-18T05:04:40.306Z,101412.23
2019-02-18T05:06:48.002Z,101418.03
2019-02-18T05:09:05.094Z,101418.03
2019-02-18T05:11:05.136Z,101413.20
2019-02-18T05:13:12.819Z,101421.49
2019-02-18T05:15:20.448Z,101420.55
2019-02-18T05:17:28.070Z,101424.58
2019-02-18T05:19:36.030Z,101428.11
2019-02-18T05:21:43.749Z,101423.83
2019-02-18T05:23:51.451Z,101425.14
2019-02-18T05:25:59.226Z,101422.92
2019-02-18T05:28:06.997Z,101429.05
2019-02-18T05:30:14.756Z,101425.24
2019-02-18T05:32:22.468Z,101429.71
2019-02-18T05:34:30.161Z,101420.93
2019-02-18T05:36:37.968Z,101426.54
2019-02-18T05:38:45.694Z,101421.73
2019-02-18T05:40:53.338Z,101429.91
2019-02-18T05:43:01.123Z,101429.44
2019-02-18T05:45:08.991Z,101433.27
2019-02-18T05:47:17.635Z,101428.04
2019-02-18T05:49:25.560Z,101424.88
2019-02-18T05:51:33.229Z,101430.59
2019-02-18T05:53:40.986Z,101433.56
2019-02-18T05:55:48.767Z,101435.63
2019-02-18T05:57:56.372Z,101439.88
2019-02-18T06:00:04.083Z,101437.31
2019-02-18T06:02:11.750Z,101437.86
2019-02-18T06:04:19.561Z,101433.20
2019-02-18T06:06:27.259Z,101448.13
2019-02-18T06:08:34.935Z,101444.58
2019-02-18T06:10:42.650Z,101446.20
2019-02-18T06:12:50.351Z,101450.05
2019-02-18T06:14:58.151Z,101460.42
2019-02-18T06:17:05.764Z,101457.50
2019-02-18T06:19:13.613Z,101455.91
2019-02-18T06:21:21.301Z,101452.44
2019-02-18T06:23:29.006Z,101461.63
2019-02-18T06:25:36.755Z,101464.22
2019-02-18T06:27:44.655Z,101462.47
2019-02-18T06:29:52.423Z,101464.62
2019-02-18T06:32:00.166Z,101470.25
2019-02-18T06:34:07.907Z,101467.08
2019-02-18T06:36:15.726Z,101467.42
2019-02-18T06:38:23.472Z,101466.11
2019-02-18T06:40:31.411Z,101464.34
2019-02-18T06:42:39.049Z,101462.49
2019-02-18T06:44:55.579Z,101468.13
2019-02-18T06:47:07.643Z,101467.63
2019-02-18T06:49:17.550Z,101468.00
2019-02-18T06:51:25.389Z,101472.34
2019-02-18T06:53:33.199Z,101469.22
2019-02-18T06:55:40.856Z,101476.09
2019-02-18T06:58:16.057Z,101477.84
2019-02-18T07:00:38.960Z,101476.53
2019-02-18T07:02:57.588Z,101474.86
2019-02-18T07:05:13.486Z,101474.02
2019-02-18T07:07:45.990Z,101472.64
2019-02-18T07:10:06.299Z,101469.98
2019-02-18T07:12:26.865Z,101479.99
2019-02-18T07:14:34.590Z,101476.91
2019-02-18T07:16:42.305Z,101473.34
2019-02-18T07:18:50.037Z,101476.33
2019-02-18T07:20:57.733Z,101481.97
2019-02-18T07:23:05.416Z,101471.88
2019-02-18T07:25:13.349Z,101470.95
2019-02-18T07:27:21.075Z,101476.19
2019-02-18T07:29:28.766Z,101470.89
2019-02-18T07:31:36.428Z,101472.14
2019-02-18T07:33:44.232Z,101468.22
2019-02-18T07:35:51.904Z,101473.84
2019-02-18T07:37:59.684Z,101475.53
2019-02-18T07:40:08.936Z,101473.75
2019-02-18T07:42:16.760Z,101471.53
2019-02-18T07:44:24.425Z,101478.05
2019-02-18T07:46:32.259Z,101480.19
2019-02-18T07:48:40.015Z,101474.49
2019-02-18T07:50:47.756Z,101479.72
2019-02-18T07:52:55.577Z,101475.31
2019-02-18T07:55:03.219Z,101476.47
2019-02-18T07:57:10.897Z,101478.62
2019-02-18T07:59:18.682Z,101472.05
2019-02-18T08:01:26.455Z,101469.80
2019-02-18T08:03:34.259Z,101475.84
2019-02-18T08:05:42.123Z,101477.47
2019-02-18T08:07:49.923Z,101475.64
2019-02-18T08:09:57.560Z,101474.64
2019-02-18T08:12:05.414Z,101472.42
2019-02-18T08:14:13.023Z,101474.52
2019-02-18T08:16:20.737Z,101474.95
2019-02-18T08:18:28.596Z,101467.00
2019-02-18T08:20:36.337Z,101470.00
2019-02-18T08:22:44.043Z,101472.58
2019-02-18T08:24:51.964Z,101455.71
2019-02-18T08:26:59.677Z,101462.20
2019-02-18T08:29:07.339Z,101458.16
2019-02-18T08:31:16.889Z,101463.05
2019-02-18T08:33:24.624Z,101456.75
2019-02-18T08:35:32.277Z,101456.36
2019-02-18T08:37:40.027Z,101460.47
2019-02-18T08:39:47.932Z,101457.02
2019-02-18T08:41:55.726Z,101457.13
2019-02-18T08:44:03.513Z,101462.55
2019-02-18T08:46:11.164Z,101459.09
2019-02-18T08:48:18.834Z,101462.00
2019-02-18T08:50:26.587Z,101461.20
2019-02-18T08:52:34.227Z,101461.20
2019-02-18T08:54:42.297Z,101456.20
2019-02-18T08:56:50.177Z,101454.18
2019-02-18T08:58:57.805Z,101452.78
2019-02-18T09:01:05.462Z,101452.51
2019-02-18T09:03:13.269Z,101455.47
2019-02-18T09:05:21.190Z,101459.08
2019-02-18T09:07:29.064Z,101456.33
2019-02-18T09:09:36.976Z,101456.39
2019-02-18T09:11:44.835Z,101454.77
2019-02-18T09:13:52.512Z,101456.05
2019-02-18T09:16:00.654Z,101460.87
2019-02-18T09:18:09.042Z,101461.31
2019-02-18T09:20:16.854Z,101470.23
2019-02-18T09:22:42.223Z,101468.37
2019-02-18T09:24:56.461Z,101464.30
2019-02-18T09:27:04.051Z,101467.81
2019-02-18T09:29:11.848Z,101458.70
2019-02-18T09:31:24.986Z,101462.16
2019-02-18T09:33:32.778Z,101463.21
2019-02-18T09:35:41.144Z,101465.41
2019-02-18T09:37:48.987Z,101467.98
2019-02-18T09:39:56.649Z,101472.31
2019-02-18T09:42:04.373Z,101469.76
2019-02-18T09:44:12.479Z,101459.73
2019-02-18T09:46:20.037Z,101465.52
2019-02-18T09:48:27.872Z,101461.24
2019-02-18T09:50:35.758Z,101464.80
2019-02-18T09:52:43.516Z,101460.05
2019-02-18T09:54:51.352Z,101458.14
2019-02-18T09:56:59.133Z,101454.69
2019-02-18T09:59:06.996Z,101453.87
2019-02-18T10:01:14.786Z,101456.11
2019-02-18T10:03:31.681Z,101447.58
2019-02-18T10:05:31.959Z,101455.59
2019-02-18T10:07:39.766Z,101452.89
2019-02-18T10:09:47.637Z,101456.20
2019-02-18T10:11:55.387Z,101450.43
2019-02-18T10:14:03.234Z,101451.03
2019-02-18T10:16:11.045Z,101453.16
2019-02-18T10:18:18.733Z,101449.61
2019-02-18T10:20:26.600Z,101450.39
2019-02-18T10:22:34.466Z,101436.25
2019-02-18T10:24:50.749Z,101444.88
2019-02-18T10:26:51.882Z,101443.36
2019-02-18T10:28:59.778Z,101443.71
2019-02-18T10:31:07.734Z,101433.50
2019-02-18T10:33:15.782Z,101442.53
2019-02-18T10:35:26.352Z,101434.21
2019-02-18T10:37:33.493Z,101427.67
2019-02-18T10:39:41.270Z,101435.03
2019-02-18T10:41:49.306Z,101428.65
2019-02-18T10:43:57.194Z,101423.81
2019-02-18T10:46:05.116Z,101429.58
2019-02-18T10:48:12.996Z,101423.31
2019-02-18T10:50:21.093Z,101429.89
2019-02-18T10:52:28.880Z,101417.73
2019-02-18T10:54:37.240Z,101421.30
2019-02-18T10:56:45.140Z,101415.47
2019-02-18T10:58:53.091Z,101420.20
2019-02-18T11:01:00.892Z,101413.66
2019-02-18T11:03:09.317Z,101410.31
2019-02-18T11:05:17.424Z,101408.39
2019-02-18T11:07:25.270Z,101406.91
2019-02-18T11:09:33.129Z,101406.34
2019-02-18T11:11:40.996Z,101412.49
2019-02-18T11:13:49.194Z,101405.56
2019-02-18T11:15:57.008Z,101407.23
2019-02-18T11:18:04.899Z,101405.38
2019-02-18T11:20:13.056Z,101402.70
2019-02-18T11:22:20.706Z,101394.00
2019-02-18T11:24:28.459Z,101398.97
2019-02-18T11:26:36.419Z,101395.02
2019-02-18T11:28:44.244Z,101387.73
2019-02-18T11:30:51.968Z,101386.31
2019-02-18T11:32:59.535Z,101387.33
2019-02-18T11:35:08.073Z,101387.37
2019-02-18T11:37:15.848Z,101384.20
2019-02-18T11:39:23.776Z,101373.28
2019-02-18T11:41:31.621Z,101379.95
2019-02-18T11:43:39.741Z,101380.83
2019-02-18T11:45:47.578Z,101375.61
2019-02-18T11:47:55.334Z,101375.50
2019-02-18T11:50:03.231Z,101379.95
2019-02-18T11:52:11.009Z,101369.17
2019-02-18T11:54:18.706Z,101367.00
2019-02-18T11:56:26.408Z,101364.06
2019-02-18T11:58:34.569Z,101358.29
2019-02-18T12:01:03.928Z,101361.04
2019-02-18T12:03:12.708Z,101352.92
2019-02-18T12:05:20.852Z,101350.48
2019-02-18T12:07:28.882Z,101349.55
2019-02-18T12:09:36.574Z,101351.30
2019-02-18T12:11:44.370Z,101339.73
2019-02-18T12:13:52.187Z,101339.53
2019-02-18T12:15:59.944Z,101330.94
2019-02-18T12:18:08.709Z,101336.28
2019-02-18T12:20:17.175Z,101325.18
2019-02-18T12:22:25.508Z,101331.30
2019-02-18T12:24:33.547Z,101326.45
2019-02-18T12:26:41.459Z,101315.61
2019-02-18T12:28:49.340Z,101321.13
2019-02-18T12:30:56.991Z,101315.56
2019-02-18T12:33:05.237Z,101315.69
2019-02-18T12:35:13.492Z,101310.84
2019-02-18T12:37:21.147Z,101317.73
2019-02-18T12:39:28.815Z,101308.52
2019-02-18T12:41:36.772Z,101309.15
2019-02-18T12:43:44.553Z,101307.48
2019-02-18T12:45:52.569Z,101299.35
2019-02-18T12:48:00.656Z,101298.17
2019-02-18T12:50:09.006Z,101295.56
2019-02-18T12:52:16.700Z,101281.63
2019-02-18T12:54:24.515Z,101282.73
2019-02-18T12:56:32.165Z,101281.73
2019-02-18T12:58:39.902Z,101283.80
2019-02-18T13:00:47.876Z,101283.98
2019-02-18T13:02:55.587Z,101269.28
2019-02-18T13:05:03.917Z,101281.80
2019-02-18T13:07:11.834Z,101276.97
2019-02-18T13:09:19.750Z,101272.91
2019-02-18T13:11:27.608Z,101274.63
2019-02-18T13:13:35.395Z,101268.95
2019-02-18T13:15:43.083Z,101273.87
2019-02-18T13:17:51.000Z,101266.53
2019-02-18T13:19:58.710Z,101268.31
2019-02-18T13:22:06.411Z,101264.53
2019-02-18T13:24:14.484Z,101269.77
2019-02-18T13:26:22.265Z,101264.20
2019-02-18T13:28:30.046Z,101267.36
2019-02-18T13:30:38.007Z,101262.75
2019-02-18T13:32:45.794Z,101264.25
2019-02-18T13:34:53.592Z,101264.36
2019-02-18T13:37:03.554Z,101264.88
2019-02-18T13:39:11.902Z,101261.14
2019-02-18T13:41:19.794Z,101259.73
2019-02-18T13:43:27.628Z,101257.55
2019-02-18T13:45:35.624Z,101255.31
2019-02-18T13:47:43.859Z,101247.86
2019-02-18T13:49:51.807Z,101250.55
2019-02-18T13:51:59.756Z,101248.66
2019-02-18T13:54:07.962Z,101255.59
2019-02-18T13:56:16.062Z,101250.06
2019-02-18T13:58:23.982Z,101254.13
2019-02-18T14:00:31.911Z,101248.86
2019-02-18T14:02:40.055Z,101246.50
2019-02-18T14:04:48.294Z,101243.59
2019-02-18T14:06:56.069Z,101242.96
2019-02-18T14:09:04.266Z,101238.47
2019-02-18T14:11:12.282Z,101241.52
2019-02-18T14:13:19.951Z,101235.05
2019-02-18T14:15:27.976Z,101236.88
2019-02-18T14:17:36.027Z,101233.36
2019-02-18T14:19:43.808Z,101240.42
2019-02-18T14:21:51.925Z,101233.03
2019-02-18T14:24:00.878Z,101238.64
2019-02-18T14:26:08.802Z,101239.20
2019-02-18T14:28:17.258Z,101234.36
2019-02-18T14:30:25.579Z,101236.23
2019-02-18T14:32:33.483Z,101234.58
2019-02-18T14:34:41.419Z,101239.04
2019-02-18T14:36:49.450Z,101238.36
2019-02-18T14:38:57.909Z,101233.43
2019-02-18T14:41:06.260Z,101229.14
2019-02-18T14:43:14.530Z,101227.23
2019-02-18T14:45:22.351Z,101229.06
2019-02-18T14:47:30.688Z,101227.91
2019-02-18T14:49:38.451Z,101233.77
2019-02-18T14:51:46.668Z,101228.08
2019-02-18T14:53:55.153Z,101229.23
2019-02-18T14:56:03.230Z,101234.62
2019-02-18T14:58:11.630Z,101228.25
2019-02-18T15:00:24.220Z,101235.38
2019-02-18T15:02:31.909Z,101233.22
2019-02-18T15:04:39.708Z,101228.04
2019-02-18T15:06:47.376Z,101215.55
2019-02-18T15:08:55.363Z,101218.34
2019-02-18T15:11:03.810Z,101215.48
2019-02-18T15:13:11.660Z,101218.47
2019-02-18T15:15:19.517Z,101215.53
2019-02-18T15:17:27.302Z,101208.81
2019-02-18T15:19:35.183Z,101213.73
2019-02-18T15:21:43.179Z,101210.37
2019-02-18T15:23:51.023Z,101211.42
2019-02-18T15:25:58.880Z,101206.75
2019-02-18T15:28:07.043Z,101200.80
2019-02-18T15:30:15.950Z,101204.09
2019-02-18T15:32:23.807Z,101202.11
2019-02-18T15:34:31.761Z,101208.73
2019-02-18T15:36:39.694Z,101209.31
2019-02-18T15:38:48.088Z,101201.11
2019-02-18T15:40:56.305Z,101204.59
2019-02-18T15:43:06.594Z,101195.08
2019-02-18T15:45:15.952Z,101197.94
2019-02-18T15:47:24.363Z,101195.45
2019-02-18T15:49:33.335Z,101198.38
2019-02-18T15:51:41.466Z,101193.66
2019-02-18T15:53:49.181Z,101199.48
2019-02-18T15:55:57.006Z,101197.89
2019-02-18T15:58:04.919Z,101199.98
2019-02-18T16:00:17.913Z,101199.42
2019-02-18T16:02:26.047Z,101197.00
2019-02-18T16:04:33.912Z,101198.77
2019-02-18T16:06:41.950Z,101195.86
2019-02-18T16:08:49.675Z,101196.98
2019-02-18T16:10:57.585Z,101193.31
2019-02-18T16:13:05.516Z,101196.54
2019-02-18T16:15:13.553Z,101195.75
2019-02-18T16:17:21.689Z,101196.97
2019-02-18T16:19:49.747Z,101188.50
2019-02-18T16:21:57.884Z,101188.84
2019-02-18T16:24:07.057Z,101191.11
2019-02-18T16:26:14.923Z,101189.59
2019-02-18T16:28:22.713Z,101191.05
2019-02-18T16:30:31.226Z,101198.34
2019-02-18T16:32:39.008Z,101196.26
2019-02-18T16:34:46.794Z,101194.24
2019-02-18T16:36:54.885Z,101200.91
2019-02-18T16:39:02.559Z,101190.42
2019-02-18T16:41:10.363Z,101192.85
2019-02-18T16:43:18.509Z,101188.69
2019-02-18T16:45:26.488Z,101189.58
2019-02-18T16:47:34.446Z,101188.89
2019-02-18T16:49:42.432Z,101192.14
2019-02-18T16:51:50.573Z,101191.97
2019-02-18T16:53:58.328Z,101193.53
2019-02-18T16:56:06.239Z,101185.77
2019-02-18T16:58:14.186Z,101186.73
2019-02-18T17:00:26.490Z,101181.50
2019-02-18T17:02:34.424Z,101181.77
2019-02-18T17:04:42.279Z,101174.84
2019-02-18T17:06:50.338Z,101176.58
2019-02-18T17:08:58.475Z,101172.06
2019-02-18T17:11:06.370Z,101172.67
2019-02-18T17:13:14.228Z,101165.37
2019-02-18T17:15:22.326Z,101169.55
2019-02-18T17:17:30.131Z,101168.96
2019-02-18T17:19:37.930Z,101172.99
2019-02-18T17:21:45.873Z,101173.52
2019-02-18T17:23:53.674Z,101173.55
2019-02-18T17:26:01.535Z,101173.14
2019-02-18T17:28:11.350Z,101167.51
2019-02-18T17:30:20.400Z,101162.56
2019-02-18T17:32:28.582Z,101164.19
2019-02-18T17:34:36.449Z,101164.77
2019-02-18T17:36:44.516Z,101163.20
2019-02-18T17:38:52.725Z,101158.89
2019-02-18T17:41:01.540Z,101162.53
2019-02-18T17:43:16.208Z,101160.34
2019-02-18T17:45:18.964Z,101157.27
2019-02-18T17:47:26.724Z,101162.01
2019-02-18T17:49:34.643Z,101158.58
2019-02-18T17:51:42.464Z,101150.91
2019-02-18T17:53:50.657Z,101156.30
2019-02-18T17:55:58.528Z,101151.87
2019-02-18T17:58:06.453Z,101146.81
2019-02-18T18:00:18.350Z,101145.91
2019-02-18T18:02:26.523Z,101146.36
2019-02-18T18:04:34.713Z,101150.51
2019-02-18T18:06:42.776Z,101144.53
2019-02-18T18:08:50.892Z,101144.12
2019-02-18T18:10:58.700Z,101141.98
2019-02-18T18:13:06.438Z,101141.63
2019-02-18T18:15:14.916Z,101143.05
2019-02-18T18:17:23.626Z,101136.50
2019-02-18T18:19:31.390Z,101143.59
2019-02-18T18:21:39.196Z,101142.39
2019-02-18T18:23:47.860Z,101135.58
2019-02-18T18:25:55.970Z,101139.95
2019-02-18T18:28:03.864Z,101132.31
2019-02-18T18:30:13.601Z,101128.41
2019-02-18T18:32:21.320Z,101123.81
2019-02-18T18:34:29.330Z,101129.88
2019-02-18T18:36:37.626Z,101124.75
2019-02-18T18:38:45.536Z,101127.91
2019-02-18T18:40:53.469Z,101133.11
2019-02-18T18:43:02.435Z,101121.83
2019-02-18T18:45:13.293Z,101127.49
2019-02-18T18:47:21.447Z,101122.58
2019-02-18T18:49:29.590Z,101125.95
2019-02-18T18:51:38.067Z,101124.70
2019-02-18T18:53:46.471Z,101119.49
2019-02-18T18:55:55.041Z,101115.98
2019-02-18T18:58:03.441Z,101111.66
2019-02-18T19:00:20.257Z,101113.43
2019-02-18T19:02:28.914Z,101119.98
2019-02-18T19:04:36.848Z,101114.30
2019-02-18T19:06:46.047Z,101107.73
2019-02-18T19:08:53.856Z,101107.72
2019-02-18T19:11:01.754Z,101104.67
2019-02-18T19:13:10.889Z,101106.52
2019-02-18T19:15:19.093Z,101109.14
2019-02-18T19:17:27.468Z,101098.70
2019-02-18T19:19:36.665Z,101098.32
2019-02-18T19:21:44.575Z,101099.16
2019-02-18T19:23:52.358Z,101103.08
2019-02-18T19:26:00.294Z,101100.02
2019-02-18T19:28:09.649Z,101100.47
2019-02-18T19:30:21.211Z,101103.52
2019-02-18T19:32:30.761Z,101094.50
2019-02-18T19:34:38.545Z,101095.50
2019-02-18T19:36:46.422Z,101095.87
2019-02-18T19:38:54.382Z,101092.48
2019-02-18T19:41:02.165Z,101093.78
2019-02-18T19:43:11.014Z,101093.78
2019-02-18T19:45:21.108Z,101096.81
2019-02-18T19:47:29.556Z,101098.17
2019-02-18T19:49:37.887Z,101091.59
2019-02-18T19:51:45.598Z,101084.98
2019-02-18T19:53:53.435Z,101086.88
2019-02-18T19:56:01.361Z,101093.95
2019-02-18T19:58:09.469Z,101091.45
2019-02-18T20:00:18.836Z,101088.06
2019-02-18T20:02:26.570Z,101079.34
2019-02-18T20:04:34.664Z,101083.80
2019-02-18T20:06:43.297Z,101075.13
2019-02-18T20:08:51.815Z,101076.34
2019-02-18T20:11:00.350Z,101069.88
2019-02-18T20:13:09.158Z,101070.72
2019-02-18T20:15:17.194Z,101066.98
2019-02-18T20:17:25.091Z,101064.88
2019-02-18T20:19:32.852Z,101065.75
2019-02-18T20:21:41.185Z,101069.34
2019-02-18T20:23:50.809Z,101059.52
2019-02-18T20:25:58.924Z,101059.12
2019-02-18T20:28:06.822Z,101059.12
2019-02-18T20:30:15.147Z,101059.91
2019-02-18T20:32:23.264Z,101053.51
2019-02-18T20:34:31.169Z,101057.03
2019-02-18T20:36:39.057Z,101050.53
2019-02-18T20:38:47.110Z,101056.58
2019-02-18T20:40:54.992Z,101053.97
2019-02-18T20:43:02.789Z,101055.73
2019-02-18T20:45:11.857Z,101051.38
2019-02-18T20:47:21.462Z,101046.16
2019-02-18T20:49:29.454Z,101052.03
2019-02-18T20:51:37.437Z,101042.33
2019-02-18T20:53:45.760Z,101041.95
2019-02-18T20:55:53.822Z,101042.08
2019-02-18T20:58:01.812Z,101034.30
2019-02-18T21:00:16.778Z,101031.72
2019-02-18T21:02:25.046Z,101038.20
2019-02-18T21:04:32.980Z,101036.09
2019-02-18T21:06:40.684Z,101037.05
2019-02-18T21:08:48.486Z,101033.98
2019-02-18T21:10:57.155Z,101031.62
2019-02-18T21:13:05.046Z,101033.02
2019-02-18T21:15:13.561Z,101024.67
2019-02-18T21:17:21.795Z,101021.20
2019-02-18T21:19:29.782Z,101023.44
2019-02-18T21:21:37.846Z,101023.55
2019-02-18T21:23:45.721Z,101016.00
2019-02-18T21:25:53.662Z,101022.39
2019-02-18T21:28:01.580Z,101022.41
2019-02-18T21:30:10.641Z,101009.36
2019-02-18T21:32:18.449Z,101021.59
2019-02-18T21:34:26.341Z,101017.44
2019-02-18T21:36:34.884Z,101023.55
2019-02-18T21:38:42.854Z,101017.48
2019-02-18T21:40:51.217Z,101010.98
2019-02-18T21:42:59.297Z,101011.88
2019-02-18T21:45:07.586Z,101009.34
2019-02-18T21:47:15.434Z,101004.48
2019-02-18T21:49:23.336Z,101012.29
2019-02-18T21:51:31.070Z,101004.64
2019-02-18T21:53:39.023Z,101005.89
2019-02-18T21:55:47.054Z,101001.88
2019-02-18T21:57:54.993Z,101001.53
2019-02-18T22:00:02.927Z,100998.92
2019-02-18T22:02:10.946Z,100991.05
2019-02-18T22:04:18.778Z,100991.97
2019-02-18T22:06:26.727Z,100995.97
2019-02-18T22:08:34.557Z,100996.44
2019-02-18T22:10:42.764Z,100994.28
2019-02-18T22:12:50.581Z,100985.49
2019-02-18T22:14:58.539Z,100988.61
2019-02-18T22:17:06.442Z,100989.02
2019-02-18T22:19:14.591Z,100984.72
2019-02-18T22:21:23.964Z,100983.03
2019-02-18T22:23:31.867Z,100981.31
2019-02-18T22:25:40.056Z,100981.70
2019-02-18T22:27:47.902Z,100982.62
2019-02-18T22:29:55.655Z,100980.42
2019-02-18T22:32:03.563Z,100974.87
2019-02-18T22:34:11.379Z,100977.52
2019-02-18T22:36:19.319Z,100977.08
2019-02-18T22:38:27.210Z,100976.63
2019-02-18T22:40:34.977Z,100971.46
2019-02-18T22:42:42.755Z,100974.81
2019-02-18T22:44:50.853Z,100974.41
2019-02-18T22:46:58.809Z,100979.56
2019-02-18T22:49:06.673Z,100975.30
2019-02-18T22:51:14.411Z,100967.55
2019-02-18T22:53:22.569Z,100971.00
2019-02-18T22:55:30.384Z,100970.09
2019-02-18T22:57:38.247Z,100960.64
2019-02-18T22:59:46.047Z,100969.72
2019-02-18T23:01:53.972Z,100967.55
2019-02-18T23:04:01.872Z,100962.81
2019-02-18T23:06:09.695Z,100963.66
2019-02-18T23:08:17.717Z,100962.87
2019-02-18T23:10:25.587Z,100959.41
2019-02-18T23:12:33.127Z,100958.51
2019-02-18T23:14:41.308Z,100956.34
2019-02-18T23:16:49.239Z,100957.30
2019-02-18T23:18:56.986Z,100955.90
2019-02-18T23:21:05.017Z,100955.55
2019-02-18T23:23:12.735Z,100949.09
2019-02-18T23:25:20.541Z,100942.59
2019-02-18T23:27:28.393Z,100938.64
2019-02-18T23:29:36.517Z,100937.44
2019-02-18T23:31:44.354Z,100943.04
2019-02-18T23:33:51.942Z,100935.68
2019-02-18T23:35:59.994Z,100934.74
2019-02-18T23:38:07.886Z,100936.54
2019-02-18T23:40:15.542Z,100931.38
2019-02-18T23:42:23.384Z,100920.02
2019-02-18T23:44:31.449Z,100924.47
2019-02-18T23:46:39.320Z,100919.22
2019-02-18T23:48:47.094Z,100918.87
2019-02-18T23:50:54.948Z,100919.33
2019-02-18T23:53:02.622Z,100918.08
2019-02-18T23:55:10.482Z,100914.59
2019-02-18T23:57:18.150Z,100914.23
2019-02-18T23:59:25.914Z,100902.02
